sensor_id;sensor_type;location;lat;lon;timestamp;P1;durP1;ratioP1;P2;durP2;ratioP2
7247;SDS011;3665;51.034;13.642;2023-06-22T00:04:15;9.90;;;8.53;;
7247;SDS011;3665;51.034;13.642;2023-06-22T00:09:05;9.30;;;8.50;;
7247;SDS011;3665;51.034;13.642;2023-06-22T00:13:49;10.13;;;8.47;;
7247;SDS011;3665;51.034;13.642;2023-06-22T00:18:38;9.10;;;8.40;;
7247;SDS011;3665;51.034;13.642;2023-06-22T00:23:28;9.60;;;8.80;;
7247;SDS011;3665;51.034;13.642;2023-06-22T00:28:16;9.70;;;8.77;;
7247;SDS011;3665;51.034;13.642;2023-06-22T00:33:02;9.23;;;8.13;;
7247;SDS011;3665;51.034;13.642;2023-06-22T00:37:51;9.10;;;8.17;;
7247;SDS011;3665;51.034;13.642;2023-06-22T00:42:46;10.23;;;8.20;;
7247;SDS011;3665;51.034;13.642;2023-06-22T00:47:31;9.40;;;8.60;;
7247;SDS011;3665;51.034;13.642;2023-06-22T00:52:29;8.53;;;7.67;;
7247;SDS011;3665;51.034;13.642;2023-06-22T00:57:19;8.90;;;8.10;;
7247;SDS011;3665;51.034;13.642;2023-06-22T01:02:06;9.03;;;8.13;;
7247;SDS011;3665;51.034;13.642;2023-06-22T01:06:58;9.43;;;8.53;;
7247;SDS011;3665;51.034;13.642;2023-06-22T01:11:51;9.13;;;8.33;;
7247;SDS011;3665;51.034;13.642;2023-06-22T01:16:48;10.27;;;9.37;;
7247;SDS011;3665;51.034;13.642;2023-06-22T01:21:34;8.90;;;8.10;;
7247;SDS011;3665;51.034;13.642;2023-06-22T01:26:25;9.20;;;8.33;;
7247;SDS011;3665;51.034;13.642;2023-06-22T01:31:22;9.93;;;9.03;;
7247;SDS011;3665;51.034;13.642;2023-06-22T01:36:08;9.83;;;8.83;;
7247;SDS011;3665;51.034;13.642;2023-06-22T01:41:02;11.60;;;10.50;;
7247;SDS011;3665;51.034;13.642;2023-06-22T01:45:47;10.23;;;9.33;;
7247;SDS011;3665;51.034;13.642;2023-06-22T01:50:42;10.33;;;9.43;;
7247;SDS011;3665;51.034;13.642;2023-06-22T01:55:26;11.00;;;10.03;;
7247;SDS011;3665;51.034;13.642;2023-06-22T02:00:13;11.07;;;9.97;;
7247;SDS011;3665;51.034;13.642;2023-06-22T02:05:02;10.40;;;9.40;;
7247;SDS011;3665;51.034;13.642;2023-06-22T02:09:59;10.77;;;9.73;;
7247;SDS011;3665;51.034;13.642;2023-06-22T02:14:48;10.50;;;9.47;;
7247;SDS011;3665;51.034;13.642;2023-06-22T02:19:35;10.17;;;9.27;;
7247;SDS011;3665;51.034;13.642;2023-06-22T02:24:19;10.33;;;9.33;;
7247;SDS011;3665;51.034;13.642;2023-06-22T02:29:14;10.07;;;9.13;;
7247;SDS011;3665;51.034;13.642;2023-06-22T02:33:59;10.00;;;9.10;;
7247;SDS011;3665;51.034;13.642;2023-06-22T02:38:49;10.13;;;9.13;;
7247;SDS011;3665;51.034;13.642;2023-06-22T02:43:34;11.70;;;10.60;;
7247;SDS011;3665;51.034;13.642;2023-06-22T02:48:27;10.60;;;9.60;;
7247;SDS011;3665;51.034;13.642;2023-06-22T02:53:11;11.17;;;10.10;;
7247;SDS011;3665;51.034;13.642;2023-06-22T02:58:00;10.13;;;9.17;;
7247;SDS011;3665;51.034;13.642;2023-06-22T03:02:49;9.50;;;8.60;;
7247;SDS011;3665;51.034;13.642;2023-06-22T03:07:34;10.07;;;9.10;;
7247;SDS011;3665;51.034;13.642;2023-06-22T03:12:20;10.33;;;9.43;;
7247;SDS011;3665;51.034;13.642;2023-06-22T03:17:08;12.93;;;9.63;;
7247;SDS011;3665;51.034;13.642;2023-06-22T03:21:56;10.23;;;9.23;;
7247;SDS011;3665;51.034;13.642;2023-06-22T03:26:51;10.57;;;9.53;;
7247;SDS011;3665;51.034;13.642;2023-06-22T03:31:36;10.27;;;9.27;;
7247;SDS011;3665;51.034;13.642;2023-06-22T03:36:22;10.17;;;9.10;;
7247;SDS011;3665;51.034;13.642;2023-06-22T03:41:10;10.23;;;9.37;;
7247;SDS011;3665;51.034;13.642;2023-06-22T03:46:08;9.23;;;8.33;;
7247;SDS011;3665;51.034;13.642;2023-06-22T03:50:59;10.13;;;9.20;;
7247;SDS011;3665;51.034;13.642;2023-06-22T03:55:52;11.07;;;9.73;;
7247;SDS011;3665;51.034;13.642;2023-06-22T04:00:37;10.33;;;9.43;;
7247;SDS011;3665;51.034;13.642;2023-06-22T04:05:29;10.53;;;9.43;;
7247;SDS011;3665;51.034;13.642;2023-06-22T04:10:14;10.20;;;9.30;;
7247;SDS011;3665;51.034;13.642;2023-06-22T04:15:00;10.00;;;9.00;;
7247;SDS011;3665;51.034;13.642;2023-06-22T04:19:48;9.97;;;8.97;;
7247;SDS011;3665;51.034;13.642;2023-06-22T04:24:47;9.20;;;8.40;;
7247;SDS011;3665;51.034;13.642;2023-06-22T04:29:43;9.47;;;7.97;;
7247;SDS011;3665;51.034;13.642;2023-06-22T04:34:30;8.80;;;8.07;;
7247;SDS011;3665;51.034;13.642;2023-06-22T04:39:15;9.60;;;8.63;;
7247;SDS011;3665;51.034;13.642;2023-06-22T04:44:07;9.00;;;8.20;;
7247;SDS011;3665;51.034;13.642;2023-06-22T04:48:57;9.00;;;8.17;;
7247;SDS011;3665;51.034;13.642;2023-06-22T04:53:43;9.10;;;7.83;;
7247;SDS011;3665;51.034;13.642;2023-06-22T04:58:26;8.70;;;7.90;;
7247;SDS011;3665;51.034;13.642;2023-06-22T05:03:19;9.13;;;8.33;;
7247;SDS011;3665;51.034;13.642;2023-06-22T05:08:09;9.87;;;8.87;;
7247;SDS011;3665;51.034;13.642;2023-06-22T05:12:52;9.17;;;8.37;;
7247;SDS011;3665;51.034;13.642;2023-06-22T05:17:40;8.53;;;7.73;;
7247;SDS011;3665;51.034;13.642;2023-06-22T05:22:34;9.17;;;8.43;;
7247;SDS011;3665;51.034;13.642;2023-06-22T05:27:19;10.47;;;9.47;;
7247;SDS011;3665;51.034;13.642;2023-06-22T05:32:03;10.80;;;9.68;;
7247;SDS011;3665;51.034;13.642;2023-06-22T05:36:55;10.20;;;8.88;;
7247;SDS011;3665;51.034;13.642;2023-06-22T05:41:44;9.65;;;7.75;;
7247;SDS011;3665;51.034;13.642;2023-06-22T05:46:28;9.10;;;8.13;;
7247;SDS011;3665;51.034;13.642;2023-06-22T05:51:19;9.57;;;8.20;;
7247;SDS011;3665;51.034;13.642;2023-06-22T05:56:08;9.68;;;8.32;;
7247;SDS011;3665;51.034;13.642;2023-06-22T06:00:55;7.80;;;7.13;;
7247;SDS011;3665;51.034;13.642;2023-06-22T06:05:45;9.65;;;8.70;;
7247;SDS011;3665;51.034;13.642;2023-06-22T06:10:35;8.90;;;8.00;;
7247;SDS011;3665;51.034;13.642;2023-06-22T06:15:18;9.40;;;8.50;;
7247;SDS011;3665;51.034;13.642;2023-06-22T06:20:11;9.65;;;8.65;;
7247;SDS011;3665;51.034;13.642;2023-06-22T06:24:55;9.20;;;8.30;;
7247;SDS011;3665;51.034;13.642;2023-06-22T06:29:43;10.18;;;9.15;;
7247;SDS011;3665;51.034;13.642;2023-06-22T06:34:32;9.85;;;8.95;;
7247;SDS011;3665;51.034;13.642;2023-06-22T06:39:20;10.05;;;9.02;;
7247;SDS011;3665;51.034;13.642;2023-06-22T06:44:09;9.55;;;8.65;;
7247;SDS011;3665;51.034;13.642;2023-06-22T06:48:55;10.15;;;9.15;;
7247;SDS011;3665;51.034;13.642;2023-06-22T06:53:41;9.55;;;8.75;;
7247;SDS011;3665;51.034;13.642;2023-06-22T06:58:32;9.00;;;8.10;;
7247;SDS011;3665;51.034;13.642;2023-06-22T07:03:21;8.68;;;7.93;;
7247;SDS011;3665;51.034;13.642;2023-06-22T07:08:08;8.32;;;7.60;;
7247;SDS011;3665;51.034;13.642;2023-06-22T07:12:54;8.52;;;7.72;;
7247;SDS011;3665;51.034;13.642;2023-06-22T07:17:43;8.77;;;7.88;;
7247;SDS011;3665;51.034;13.642;2023-06-22T07:22:26;9.02;;;8.23;;
7247;SDS011;3665;51.034;13.642;2023-06-22T07:27:20;9.02;;;8.18;;
7247;SDS011;3665;51.034;13.642;2023-06-22T07:32:13;8.60;;;7.75;;
7247;SDS011;3665;51.034;13.642;2023-06-22T07:36:58;9.23;;;8.48;;
7247;SDS011;3665;51.034;13.642;2023-06-22T07:41:43;8.18;;;7.47;;
7247;SDS011;3665;51.034;13.642;2023-06-22T07:46:35;8.57;;;7.97;;
7247;SDS011;3665;51.034;13.642;2023-06-22T07:51:19;7.93;;;7.22;;
7247;SDS011;3665;51.034;13.642;2023-06-22T08:01:06;8.52;;;7.75;;
7247;SDS011;3665;51.034;13.642;2023-06-22T08:05:51;8.80;;;7.85;;
7247;SDS011;3665;51.034;13.642;2023-06-22T08:10:39;9.02;;;8.23;;
7247;SDS011;3665;51.034;13.642;2023-06-22T08:15:38;8.25;;;7.53;;
7247;SDS011;3665;51.034;13.642;2023-06-22T08:20:21;8.60;;;7.88;;
7247;SDS011;3665;51.034;13.642;2023-06-22T08:25:13;7.63;;;6.93;;
7247;SDS011;3665;51.034;13.642;2023-06-22T08:29:56;7.60;;;6.82;;
7247;SDS011;3665;51.034;13.642;2023-06-22T08:34:47;7.32;;;6.72;;
7247;SDS011;3665;51.034;13.642;2023-06-22T08:39:36;7.93;;;7.20;;
7247;SDS011;3665;51.034;13.642;2023-06-22T08:44:24;7.80;;;7.20;;
7247;SDS011;3665;51.034;13.642;2023-06-22T08:49:11;7.25;;;6.65;;
7247;SDS011;3665;51.034;13.642;2023-06-22T08:53:59;7.00;;;6.50;;
7247;SDS011;3665;51.034;13.642;2023-06-22T08:58:46;7.53;;;6.95;;
7247;SDS011;3665;51.034;13.642;2023-06-22T09:03:37;7.93;;;7.25;;
7247;SDS011;3665;51.034;13.642;2023-06-22T09:08:22;7.82;;;7.30;;
7247;SDS011;3665;51.034;13.642;2023-06-22T09:13:11;7.13;;;6.60;;
7247;SDS011;3665;51.034;13.642;2023-06-22T09:18:00;7.13;;;6.63;;
7247;SDS011;3665;51.034;13.642;2023-06-22T09:23:04;7.95;;;7.15;;
7247;SDS011;3665;51.034;13.642;2023-06-22T09:27:51;7.38;;;6.78;;
7247;SDS011;3665;51.034;13.642;2023-06-22T09:32:43;7.40;;;6.75;;
7247;SDS011;3665;51.034;13.642;2023-06-22T09:37:27;7.57;;;6.97;;
7247;SDS011;3665;51.034;13.642;2023-06-22T09:42:10;7.90;;;7.28;;
7247;SDS011;3665;51.034;13.642;2023-06-22T09:47:04;8.07;;;7.35;;
7247;SDS011;3665;51.034;13.642;2023-06-22T09:51:52;7.78;;;7.07;;
7247;SDS011;3665;51.034;13.642;2023-06-22T09:56:42;7.40;;;6.80;;
7247;SDS011;3665;51.034;13.642;2023-06-22T10:01:25;7.50;;;6.80;;
7247;SDS011;3665;51.034;13.642;2023-06-22T10:06:13;7.00;;;6.45;;
7247;SDS011;3665;51.034;13.642;2023-06-22T10:11:03;7.50;;;6.90;;
7247;SDS011;3665;51.034;13.642;2023-06-22T10:15:47;8.00;;;7.22;;
7247;SDS011;3665;51.034;13.642;2023-06-22T10:20:41;6.63;;;6.13;;
7247;SDS011;3665;51.034;13.642;2023-06-22T10:25:27;7.20;;;6.50;;
7247;SDS011;3665;51.034;13.642;2023-06-22T10:30:20;7.13;;;6.53;;
7247;SDS011;3665;51.034;13.642;2023-06-22T10:35:04;7.30;;;6.70;;
7247;SDS011;3665;51.034;13.642;2023-06-22T10:39:52;7.00;;;6.47;;
7247;SDS011;3665;51.034;13.642;2023-06-22T10:44:41;7.88;;;7.28;;
7247;SDS011;3665;51.034;13.642;2023-06-22T10:49:28;7.90;;;7.20;;
7247;SDS011;3665;51.034;13.642;2023-06-22T10:54:11;7.63;;;7.00;;
7247;SDS011;3665;51.034;13.642;2023-06-22T10:59:03;8.10;;;7.32;;
7247;SDS011;3665;51.034;13.642;2023-06-22T11:03:49;7.88;;;7.38;;
7247;SDS011;3665;51.034;13.642;2023-06-22T11:08:44;7.93;;;7.32;;
7247;SDS011;3665;51.034;13.642;2023-06-22T11:14:00;7.70;;;7.00;;
7247;SDS011;3665;51.034;13.642;2023-06-22T11:18:48;7.53;;;6.82;;
7247;SDS011;3665;51.034;13.642;2023-06-22T11:23:39;7.38;;;6.68;;
7247;SDS011;3665;51.034;13.642;2023-06-22T11:28:23;7.40;;;6.75;;
7247;SDS011;3665;51.034;13.642;2023-06-22T11:33:06;7.38;;;6.82;;
7247;SDS011;3665;51.034;13.642;2023-06-22T11:37:52;7.20;;;6.60;;
7247;SDS011;3665;51.034;13.642;2023-06-22T11:42:51;7.50;;;6.88;;
7247;SDS011;3665;51.034;13.642;2023-06-22T11:47:34;7.25;;;6.55;;
7247;SDS011;3665;51.034;13.642;2023-06-22T11:52:27;7.20;;;6.50;;
7247;SDS011;3665;51.034;13.642;2023-06-22T11:57:12;7.55;;;6.95;;
7247;SDS011;3665;51.034;13.642;2023-06-22T12:02:08;7.60;;;6.90;;
7247;SDS011;3665;51.034;13.642;2023-06-22T12:07:03;7.47;;;6.88;;
7247;SDS011;3665;51.034;13.642;2023-06-22T12:11:51;7.60;;;6.90;;
7247;SDS011;3665;51.034;13.642;2023-06-22T12:16:36;7.53;;;6.93;;
7247;SDS011;3665;51.034;13.642;2023-06-22T12:21:32;7.80;;;7.25;;
7247;SDS011;3665;51.034;13.642;2023-06-22T12:26:16;7.93;;;7.13;;
7247;SDS011;3665;51.034;13.642;2023-06-22T12:31:02;7.22;;;6.63;;
7247;SDS011;3665;51.034;13.642;2023-06-22T12:35:47;6.60;;;6.10;;
7247;SDS011;3665;51.034;13.642;2023-06-22T12:40:40;7.47;;;6.65;;
7247;SDS011;3665;51.034;13.642;2023-06-22T12:45:27;7.07;;;6.57;;
7247;SDS011;3665;51.034;13.642;2023-06-22T12:50:31;6.90;;;6.40;;
7247;SDS011;3665;51.034;13.642;2023-06-22T12:55:21;7.53;;;6.93;;
7247;SDS011;3665;51.034;13.642;2023-06-22T13:00:15;6.82;;;6.22;;
7247;SDS011;3665;51.034;13.642;2023-06-22T13:05:12;7.50;;;6.80;;
7247;SDS011;3665;51.034;13.642;2023-06-22T13:10:01;7.05;;;6.55;;
7247;SDS011;3665;51.034;13.642;2023-06-22T13:14:47;7.25;;;6.65;;
7247;SDS011;3665;51.034;13.642;2023-06-22T13:24:41;6.93;;;6.28;;
7247;SDS011;3665;51.034;13.642;2023-06-22T13:29:28;7.25;;;6.50;;
7247;SDS011;3665;51.034;13.642;2023-06-22T13:34:15;6.72;;;6.15;;
7247;SDS011;3665;51.034;13.642;2023-06-22T13:39:03;7.38;;;6.80;;
7247;SDS011;3665;51.034;13.642;2023-06-22T13:43:53;7.05;;;6.55;;
7247;SDS011;3665;51.034;13.642;2023-06-22T13:48:39;7.68;;;6.88;;
7247;SDS011;3665;51.034;13.642;2023-06-22T13:58:46;6.72;;;6.22;;
7247;SDS011;3665;51.034;13.642;2023-06-22T14:03:42;6.78;;;6.18;;
7247;SDS011;3665;51.034;13.642;2023-06-22T14:08:28;7.70;;;6.70;;
7247;SDS011;3665;51.034;13.642;2023-06-22T14:13:32;6.43;;;5.90;;
7247;SDS011;3665;51.034;13.642;2023-06-22T14:18:20;7.05;;;6.45;;
7247;SDS011;3665;51.034;13.642;2023-06-22T14:23:04;6.68;;;6.15;;
7247;SDS011;3665;51.034;13.642;2023-06-22T14:27:50;6.60;;;6.10;;
7247;SDS011;3665;51.034;13.642;2023-06-22T14:33:00;7.28;;;6.72;;
7247;SDS011;3665;51.034;13.642;2023-06-22T14:37:56;7.53;;;6.80;;
7247;SDS011;3665;51.034;13.642;2023-06-22T14:42:53;6.70;;;6.20;;
7247;SDS011;3665;51.034;13.642;2023-06-22T14:47:40;6.72;;;6.22;;
7247;SDS011;3665;51.034;13.642;2023-06-22T14:52:24;7.00;;;6.50;;
7247;SDS011;3665;51.034;13.642;2023-06-22T14:57:16;6.60;;;6.07;;
7247;SDS011;3665;51.034;13.642;2023-06-22T15:02:01;6.85;;;6.35;;
7247;SDS011;3665;51.034;13.642;2023-06-22T15:06:56;7.30;;;6.70;;
7247;SDS011;3665;51.034;13.642;2023-06-22T15:11:40;6.28;;;5.78;;
7247;SDS011;3665;51.034;13.642;2023-06-22T15:16:33;6.63;;;6.10;;
7247;SDS011;3665;51.034;13.642;2023-06-22T15:21:16;7.13;;;6.43;;
7247;SDS011;3665;51.034;13.642;2023-06-22T15:26:06;8.85;;;6.32;;
7247;SDS011;3665;51.034;13.642;2023-06-22T15:30:52;6.93;;;6.32;;
7247;SDS011;3665;51.034;13.642;2023-06-22T15:35:45;7.38;;;6.78;;
7247;SDS011;3665;51.034;13.642;2023-06-22T15:40:28;6.88;;;6.25;;
7247;SDS011;3665;51.034;13.642;2023-06-22T15:45:12;8.23;;;6.88;;
7247;SDS011;3665;51.034;13.642;2023-06-22T15:50:13;8.07;;;6.95;;
7247;SDS011;3665;51.034;13.642;2023-06-22T15:55:09;7.25;;;6.60;;
7247;SDS011;3665;51.034;13.642;2023-06-22T15:59:52;7.00;;;6.50;;
7247;SDS011;3665;51.034;13.642;2023-06-22T16:04:41;7.65;;;6.88;;
7247;SDS011;3665;51.034;13.642;2023-06-22T16:09:34;7.53;;;6.68;;
7247;SDS011;3665;51.034;13.642;2023-06-22T16:14:20;8.02;;;7.18;;
7247;SDS011;3665;51.034;13.642;2023-06-22T16:19:06;6.85;;;6.35;;
7247;SDS011;3665;51.034;13.642;2023-06-22T16:23:53;8.55;;;7.72;;
7247;SDS011;3665;51.034;13.642;2023-06-22T16:28:39;8.38;;;7.57;;
7247;SDS011;3665;51.034;13.642;2023-06-22T16:33:36;7.68;;;7.07;;
7247;SDS011;3665;51.034;13.642;2023-06-22T16:38:20;7.97;;;7.38;;
7247;SDS011;3665;51.034;13.642;2023-06-22T16:43:09;8.60;;;7.85;;
7247;SDS011;3665;51.034;13.642;2023-06-22T16:47:56;7.97;;;7.38;;
7247;SDS011;3665;51.034;13.642;2023-06-22T16:52:41;8.23;;;7.53;;
7247;SDS011;3665;51.034;13.642;2023-06-22T16:57:30;9.60;;;8.25;;
7247;SDS011;3665;51.034;13.642;2023-06-22T17:02:23;9.77;;;8.73;;
7247;SDS011;3665;51.034;13.642;2023-06-22T17:07:07;9.60;;;8.70;;
7247;SDS011;3665;51.034;13.642;2023-06-22T17:11:58;9.80;;;8.98;;
7247;SDS011;3665;51.034;13.642;2023-06-22T17:16:44;9.10;;;8.32;;
7247;SDS011;3665;51.034;13.642;2023-06-22T17:21:29;9.80;;;8.82;;
7247;SDS011;3665;51.034;13.642;2023-06-22T17:26:14;9.90;;;8.98;;
7247;SDS011;3665;51.034;13.642;2023-06-22T17:31:09;9.38;;;8.68;;
7247;SDS011;3665;51.034;13.642;2023-06-22T17:35:59;9.48;;;8.63;;
7247;SDS011;3665;51.034;13.642;2023-06-22T17:40:46;9.13;;;8.32;;
7247;SDS011;3665;51.034;13.642;2023-06-22T17:45:29;8.77;;;8.13;;
7247;SDS011;3665;51.034;13.642;2023-06-22T17:50:24;11.48;;;9.43;;
7247;SDS011;3665;51.034;13.642;2023-06-22T17:55:08;9.77;;;8.75;;
7247;SDS011;3665;51.034;13.642;2023-06-22T17:59:54;9.38;;;8.48;;
7247;SDS011;3665;51.034;13.642;2023-06-22T18:04:48;11.77;;;9.52;;
7247;SDS011;3665;51.034;13.642;2023-06-22T18:09:35;9.82;;;9.02;;
7247;SDS011;3665;51.034;13.642;2023-06-22T18:14:19;9.75;;;8.55;;
7247;SDS011;3665;51.034;13.642;2023-06-22T18:19:05;9.25;;;8.52;;
7247;SDS011;3665;51.034;13.642;2023-06-22T18:24:01;10.23;;;9.23;;
7247;SDS011;3665;51.034;13.642;2023-06-22T18:28:47;9.60;;;8.75;;
7247;SDS011;3665;51.034;13.642;2023-06-22T18:33:33;10.02;;;9.23;;
7247;SDS011;3665;51.034;13.642;2023-06-22T18:38:16;11.65;;;10.02;;
7247;SDS011;3665;51.034;13.642;2023-06-22T18:43:08;10.50;;;9.60;;
7247;SDS011;3665;51.034;13.642;2023-06-22T18:47:57;10.68;;;9.73;;
7247;SDS011;3665;51.034;13.642;2023-06-22T18:52:45;11.00;;;9.98;;
7247;SDS011;3665;51.034;13.642;2023-06-22T18:57:51;10.80;;;9.90;;
7247;SDS011;3665;51.034;13.642;2023-06-22T19:03:09;10.90;;;9.77;;
7247;SDS011;3665;51.034;13.642;2023-06-22T19:08:12;10.80;;;9.82;;
7247;SDS011;3665;51.034;13.642;2023-06-22T19:12:57;10.38;;;9.57;;
7247;SDS011;3665;51.034;13.642;2023-06-22T19:18:00;10.68;;;9.77;;
7247;SDS011;3665;51.034;13.642;2023-06-22T19:23:10;11.43;;;10.38;;
7247;SDS011;3665;51.034;13.642;2023-06-22T19:28:14;10.45;;;9.57;;
7247;SDS011;3665;51.034;13.642;2023-06-22T19:33:01;12.25;;;11.02;;
7247;SDS011;3665;51.034;13.642;2023-06-22T19:37:49;11.35;;;10.35;;
7247;SDS011;3665;51.034;13.642;2023-06-22T19:42:37;11.50;;;10.40;;
7247;SDS011;3665;51.034;13.642;2023-06-22T19:47:27;11.57;;;10.68;;
7247;SDS011;3665;51.034;13.642;2023-06-22T19:52:11;11.73;;;10.60;;
7247;SDS011;3665;51.034;13.642;2023-06-22T19:57:02;11.85;;;10.75;;
7247;SDS011;3665;51.034;13.642;2023-06-22T20:01:51;20.00;;;17.98;;
7247;SDS011;3665;51.034;13.642;2023-06-22T20:06:37;12.32;;;11.13;;
7247;SDS011;3665;51.034;13.642;2023-06-22T20:11:23;11.63;;;10.63;;
7247;SDS011;3665;51.034;13.642;2023-06-22T20:16:15;12.18;;;11.07;;
7247;SDS011;3665;51.034;13.642;2023-06-22T20:21:02;18.48;;;16.80;;
7247;SDS011;3665;51.034;13.642;2023-06-22T20:25:49;12.48;;;11.15;;
7247;SDS011;3665;51.034;13.642;2023-06-22T20:30:35;11.97;;;10.97;;
7247;SDS011;3665;51.034;13.642;2023-06-22T20:35:27;12.10;;;10.98;;
7247;SDS011;3665;51.034;13.642;2023-06-22T20:40:27;12.23;;;11.00;;
7247;SDS011;3665;51.034;13.642;2023-06-22T20:45:18;11.00;;;10.18;;
7247;SDS011;3665;51.034;13.642;2023-06-22T20:50:05;12.05;;;11.05;;
7247;SDS011;3665;51.034;13.642;2023-06-22T20:54:50;11.40;;;10.32;;
7247;SDS011;3665;51.034;13.642;2023-06-22T20:59:40;11.05;;;10.07;;
7247;SDS011;3665;51.034;13.642;2023-06-22T21:04:46;11.65;;;10.50;;
7247;SDS011;3665;51.034;13.642;2023-06-22T21:09:32;11.35;;;10.35;;
7247;SDS011;3665;51.034;13.642;2023-06-22T21:14:38;11.82;;;10.55;;
7247;SDS011;3665;51.034;13.642;2023-06-22T21:19:25;11.98;;;10.73;;
7247;SDS011;3665;51.034;13.642;2023-06-22T21:24:13;12.48;;;11.48;;
7247;SDS011;3665;51.034;13.642;2023-06-22T21:29:00;12.02;;;11.02;;
7247;SDS011;3665;51.034;13.642;2023-06-22T21:33:52;13.32;;;12.23;;
7247;SDS011;3665;51.034;13.642;2023-06-22T21:38:36;13.13;;;12.02;;
7247;SDS011;3665;51.034;13.642;2023-06-22T21:43:25;13.63;;;12.38;;
7247;SDS011;3665;51.034;13.642;2023-06-22T21:48:08;14.75;;;13.45;;
7247;SDS011;3665;51.034;13.642;2023-06-22T21:53:05;14.32;;;12.88;;
7247;SDS011;3665;51.034;13.642;2023-06-22T21:57:48;15.52;;;14.10;;
7247;SDS011;3665;51.034;13.642;2023-06-22T22:02:38;15.45;;;13.95;;
7247;SDS011;3665;51.034;13.642;2023-06-22T22:07:25;15.48;;;13.82;;
7247;SDS011;3665;51.034;13.642;2023-06-22T22:12:14;15.60;;;14.18;;
7247;SDS011;3665;51.034;13.642;2023-06-22T22:17:00;15.77;;;14.17;;
7247;SDS011;3665;51.034;13.642;2023-06-22T22:21:50;16.20;;;14.63;;
7247;SDS011;3665;51.034;13.642;2023-06-22T22:43:25;18.43;;;16.60;;
7247;SDS011;3665;51.034;13.642;2023-06-22T22:48:11;15.30;;;13.73;;
7247;SDS011;3665;51.034;13.642;2023-06-22T22:52:56;16.97;;;15.37;;
7247;SDS011;3665;51.034;13.642;2023-06-22T22:57:50;15.20;;;13.63;;
7247;SDS011;3665;51.034;13.642;2023-06-22T23:02:38;10.87;;;8.13;;
7247;SDS011;3665;51.034;13.642;2023-06-22T23:07:24;11.13;;;4.23;;
7247;SDS011;3665;51.034;13.642;2023-06-22T23:12:14;7.20;;;2.40;;
7247;SDS011;3665;51.034;13.642;2023-06-22T23:17:01;6.40;;;2.37;;
7247;SDS011;3665;51.034;13.642;2023-06-22T23:21:51;5.50;;;1.63;;
7247;SDS011;3665;51.034;13.642;2023-06-22T23:26:37;5.93;;;1.70;;
7247;SDS011;3665;51.034;13.642;2023-06-22T23:31:21;3.03;;;1.20;;
7247;SDS011;3665;51.034;13.642;2023-06-22T23:36:13;2.30;;;1.40;;
7247;SDS011;3665;51.034;13.642;2023-06-22T23:46:20;3.90;;;1.30;;
7247;SDS011;3665;51.034;13.642;2023-06-22T23:51:09;2.53;;;1.20;;
7247;SDS011;3665;51.034;13.642;2023-06-22T23:55:54;3.20;;;1.40;;
